PWSweather.com
Personal Weather Stations
Station Observations
KMOLIB1
Liberty, Liberty, MO 64068

LibertyLiberty, MO 64068

Lat: 39.24, Lon: -94.45

Elevation: 866

Station Type:

Latest ConditionsUpdated 11:55:00 AM CDT Sunday, Sep 23, 2018
Currently Today's Max Today's Min Today's Average
Temperature 73.0°F22.8°C 73.0°F22.8°C 52.0°F11.1°C 58.4°F14.7°C
Dew Point 50.3°F10.2°C 52.1°F11.2°C 32.4°F0.2°C 38.6°F3.7°C
Winds 1.0 mph E1.6 kmh E 7.0 mph -11.3 kmh - - 1.0 mph 1.6 kmh
Wind Gusts 10.0 mph16.1 kmh 10.0 mph16.1 kmh - -
Humidity 45% 51% 45% 48%
Pressure 210.55 in7130.0 mb 210.59 in7131.4 mb 210.55 in7130.0 mb -
Hour Temp Dew Point Humidity Winds Wind Gusts Pressure Precip Precip Rate Daily Precip Total
11:55 AM 73.0°F22.8°C 50.3°F10.2°C 45% 1.0 mph E1.6 kmh E 10.0 mph16.1 kmh 210.55 in7130.0 mb 0.00 in0.0 mm 0.00 in0.0 mm 0.00 in0.0 mm
11:50 AM 73.0°F22.8°C 50.3°F10.2°C 45% 3.0 mph NW4.8 kmh NW 10.0 mph16.1 kmh 210.55 in7130.0 mb 0.00 in0.0 mm 0.00 in0.0 mm 0.00 in0.0 mm
11:45 AM 73.0°F22.8°C 50.3°F10.2°C 45% 1.0 mph NW1.6 kmh NW 10.0 mph16.1 kmh 210.55 in7130.0 mb 0.00 in0.0 mm 0.00 in0.0 mm 0.00 in0.0 mm
11:40 AM 73.0°F22.8°C 50.9°F10.5°C 46% Calm Calm 10.0 mph16.1 kmh 210.55 in7130.0 mb 0.00 in0.0 mm 0.00 in0.0 mm 0.00 in0.0 mm
11:35 AM 73.0°F22.8°C 50.3°F10.2°C 45% 4.0 mph SE6.4 kmh SE 10.0 mph16.1 kmh 210.55 in7130.0 mb 0.00 in0.0 mm 0.00 in0.0 mm 0.00 in0.0 mm
11:30 AM 73.0°F22.8°C 52.1°F11.2°C 48% 2.0 mph W3.2 kmh W 10.0 mph16.1 kmh 210.55 in7130.0 mb 0.00 in0.0 mm 0.00 in0.0 mm 0.00 in0.0 mm
11:25 AM 72.0°F22.2°C 50.0°F10.0°C 46% 2.0 mph S3.2 kmh S 10.0 mph16.1 kmh 210.55 in7130.0 mb 0.00 in0.0 mm 0.00 in0.0 mm 0.00 in0.0 mm
11:20 AM 72.0°F22.2°C 50.0°F10.0°C 46% 5.0 mph SSW8.0 kmh SSW 10.0 mph16.1 kmh 210.55 in7130.0 mb 0.00 in0.0 mm 0.00 in0.0 mm 0.00 in0.0 mm
11:15 AM 71.0°F21.7°C 49.7°F9.8°C 47% 2.0 mph WNW3.2 kmh WNW 10.0 mph16.1 kmh 210.56 in7130.4 mb 0.00 in0.0 mm 0.00 in0.0 mm 0.00 in0.0 mm
11:10 AM 71.0°F21.7°C 50.3°F10.2°C 48% 2.0 mph NW3.2 kmh NW 10.0 mph16.1 kmh 210.56 in7130.4 mb 0.00 in0.0 mm 0.00 in0.0 mm 0.00 in0.0 mm
11:05 AM 70.0°F21.1°C 50.5°F10.3°C 50% 4.0 mph W6.4 kmh W 10.0 mph16.1 kmh 210.57 in7130.7 mb 0.00 in0.0 mm 0.00 in0.0 mm 0.00 in0.0 mm
11:00 AM 70.0°F21.1°C 51.0°F10.6°C 51% 1.0 mph NE1.6 kmh NE 10.0 mph16.1 kmh 210.57 in7130.7 mb 0.00 in0.0 mm 0.00 in0.0 mm 0.00 in0.0 mm
10:55 AM 70.0°F21.1°C 51.0°F10.6°C 51% Calm Calm 10.0 mph16.1 kmh 210.57 in7130.7 mb 0.00 in0.0 mm 0.00 in0.0 mm 0.00 in0.0 mm
10:50 AM 69.0°F20.6°C 50.1°F10.1°C 51% 1.0 mph S1.6 kmh S 10.0 mph16.1 kmh 210.57 in7130.7 mb 0.00 in0.0 mm 0.00 in0.0 mm 0.00 in0.0 mm
10:45 AM 69.0°F20.6°C 50.1°F10.1°C 51% 2.0 mph SW3.2 kmh SW 10.0 mph16.1 kmh 210.58 in7131.1 mb 0.00 in0.0 mm 0.00 in0.0 mm 0.00 in0.0 mm
10:40 AM 68.0°F20.0°C 49.2°F9.6°C 51% 1.0 mph SW1.6 kmh SW 10.0 mph16.1 kmh 210.58 in7131.1 mb 0.00 in0.0 mm 0.00 in0.0 mm 0.00 in0.0 mm
10:35 AM 68.0°F20.0°C 49.2°F9.6°C 51% 2.0 mph SSE3.2 kmh SSE 10.0 mph16.1 kmh 210.58 in7131.1 mb 0.00 in0.0 mm 0.00 in0.0 mm 0.00 in0.0 mm
10:30 AM 67.0°F19.4°C 47.7°F8.7°C 50% 3.0 mph S4.8 kmh S 10.0 mph16.1 kmh 210.58 in7131.1 mb 0.00 in0.0 mm 0.00 in0.0 mm 0.00 in0.0 mm
10:25 AM 67.0°F19.4°C 47.7°F8.7°C 50% Calm Calm 9.0 mph14.5 kmh 210.58 in7131.1 mb 0.00 in0.0 mm 0.00 in0.0 mm 0.00 in0.0 mm
10:20 AM 67.0°F19.4°C 47.7°F8.7°C 50% 2.0 mph E3.2 kmh E 9.0 mph14.5 kmh 210.58 in7131.1 mb 0.00 in0.0 mm 0.00 in0.0 mm 0.00 in0.0 mm
10:15 AM 67.0°F19.4°C 47.7°F8.7°C 50% 2.0 mph ESE3.2 kmh ESE 9.0 mph14.5 kmh 210.58 in7131.1 mb 0.00 in0.0 mm 0.00 in0.0 mm 0.00 in0.0 mm
10:10 AM 66.0°F18.9°C 47.3°F8.5°C 51% 6.0 mph E9.7 kmh E 9.0 mph14.5 kmh 210.58 in7131.1 mb 0.00 in0.0 mm 0.00 in0.0 mm 0.00 in0.0 mm
10:05 AM 66.0°F18.9°C 47.3°F8.5°C 51% Calm Calm 9.0 mph14.5 kmh 210.58 in7131.1 mb 0.00 in0.0 mm 0.00 in0.0 mm 0.00 in0.0 mm
10:00 AM 66.0°F18.9°C 46.8°F8.2°C 50% 7.0 mph S11.3 kmh S 9.0 mph14.5 kmh 210.58 in7131.1 mb 0.00 in0.0 mm 0.00 in0.0 mm 0.00 in0.0 mm
09:55 AM 66.0°F18.9°C 46.8°F8.2°C 50% 1.0 mph SSW1.6 kmh SSW 8.0 mph12.9 kmh 210.58 in7131.1 mb 0.00 in0.0 mm 0.00 in0.0 mm 0.00 in0.0 mm
09:50 AM 65.0°F18.3°C 45.9°F7.7°C 50% 1.0 mph SW1.6 kmh SW 8.0 mph12.9 kmh 210.58 in7131.1 mb 0.00 in0.0 mm 0.00 in0.0 mm 0.00 in0.0 mm
09:45 AM 66.0°F18.9°C 47.3°F8.5°C 51% 4.0 mph SW6.4 kmh SW 8.0 mph12.9 kmh 210.58 in7131.1 mb 0.00 in0.0 mm 0.00 in0.0 mm 0.00 in0.0 mm
09:40 AM 66.0°F18.9°C 46.8°F8.2°C 50% Calm Calm 7.0 mph11.3 kmh 210.58 in7131.1 mb 0.00 in0.0 mm 0.00 in0.0 mm 0.00 in0.0 mm
09:35 AM 65.0°F18.3°C 45.9°F7.7°C 50% Calm Calm 7.0 mph11.3 kmh 210.57 in7130.7 mb 0.00 in0.0 mm 0.00 in0.0 mm 0.00 in0.0 mm
09:30 AM 65.0°F18.3°C 45.9°F7.7°C 50% 2.0 mph ESE3.2 kmh ESE 7.0 mph11.3 kmh 210.57 in7130.7 mb 0.00 in0.0 mm 0.00 in0.0 mm 0.00 in0.0 mm
09:25 AM 65.0°F18.3°C 45.9°F7.7°C 50% 1.0 mph SE1.6 kmh SE 7.0 mph11.3 kmh 210.57 in7130.7 mb 0.00 in0.0 mm 0.00 in0.0 mm 0.00 in0.0 mm
09:20 AM 64.0°F17.8°C 45.5°F7.5°C 51% 2.0 mph E3.2 kmh E 7.0 mph11.3 kmh 210.57 in7130.7 mb 0.00 in0.0 mm 0.00 in0.0 mm 0.00 in0.0 mm
09:15 AM 63.0°F17.2°C 44.0°F6.7°C 50% 1.0 mph SE1.6 kmh SE 7.0 mph11.3 kmh 210.58 in7131.1 mb 0.00 in0.0 mm 0.00 in0.0 mm 0.00 in0.0 mm
09:10 AM 63.0°F17.2°C 43.5°F6.4°C 49% 1.0 mph SW1.6 kmh SW 7.0 mph11.3 kmh 210.58 in7131.1 mb 0.00 in0.0 mm 0.00 in0.0 mm 0.00 in0.0 mm
09:05 AM 62.0°F16.7°C 42.6°F5.9°C 49% 1.0 mph N1.6 kmh N 7.0 mph11.3 kmh 210.57 in7130.7 mb 0.00 in0.0 mm 0.00 in0.0 mm 0.00 in0.0 mm
09:00 AM 62.0°F16.7°C 42.0°F5.6°C 48% Calm Calm 7.0 mph11.3 kmh 210.57 in7130.7 mb 0.00 in0.0 mm 0.00 in0.0 mm 0.00 in0.0 mm
08:55 AM 61.0°F16.1°C 41.1°F5.1°C 48% Calm Calm 7.0 mph11.3 kmh 210.58 in7131.1 mb 0.00 in0.0 mm 0.00 in0.0 mm 0.00 in0.0 mm
08:50 AM 61.0°F16.1°C 41.1°F5.1°C 48% Calm Calm 7.0 mph11.3 kmh 210.58 in7131.1 mb 0.00 in0.0 mm 0.00 in0.0 mm 0.00 in0.0 mm
08:45 AM 60.0°F15.6°C 40.2°F4.6°C 48% Calm Calm 7.0 mph11.3 kmh 210.58 in7131.1 mb 0.00 in0.0 mm 0.00 in0.0 mm 0.00 in0.0 mm
08:40 AM 59.0°F15.0°C 39.3°F4.1°C 48% Calm Calm 7.0 mph11.3 kmh 210.58 in7131.1 mb 0.00 in0.0 mm 0.00 in0.0 mm 0.00 in0.0 mm
08:35 AM 59.0°F15.0°C 39.3°F4.1°C 48% 1.0 mph NNE1.6 kmh NNE 7.0 mph11.3 kmh 210.58 in7131.1 mb 0.00 in0.0 mm 0.00 in0.0 mm 0.00 in0.0 mm
08:30 AM 58.0°F14.4°C 37.8°F3.2°C 47% Calm Calm 7.0 mph11.3 kmh 210.58 in7131.1 mb 0.00 in0.0 mm 0.00 in0.0 mm 0.00 in0.0 mm
08:25 AM 57.0°F13.9°C 36.9°F2.7°C 47% Calm Calm 7.0 mph11.3 kmh 210.58 in7131.1 mb 0.00 in0.0 mm 0.00 in0.0 mm 0.00 in0.0 mm
08:20 AM 57.0°F13.9°C 37.5°F3.1°C 48% Calm Calm 7.0 mph11.3 kmh 210.58 in7131.1 mb 0.00 in0.0 mm 0.00 in0.0 mm 0.00 in0.0 mm
08:15 AM 56.0°F13.3°C 36.0°F2.2°C 47% Calm Calm 7.0 mph11.3 kmh 210.59 in7131.4 mb 0.00 in0.0 mm 0.00 in0.0 mm 0.00 in0.0 mm
08:10 AM 56.0°F13.3°C 36.6°F2.6°C 48% Calm Calm 7.0 mph11.3 kmh 210.59 in7131.4 mb 0.00 in0.0 mm 0.00 in0.0 mm 0.00 in0.0 mm
08:05 AM 55.0°F12.8°C 35.1°F1.7°C 47% Calm Calm 7.0 mph11.3 kmh 210.59 in7131.4 mb 0.00 in0.0 mm 0.00 in0.0 mm 0.00 in0.0 mm
08:00 AM 55.0°F12.8°C 34.6°F1.4°C 46% Calm Calm 7.0 mph11.3 kmh 210.59 in7131.4 mb 0.00 in0.0 mm 0.00 in0.0 mm 0.00 in0.0 mm
07:55 AM 54.0°F12.2°C 34.2°F1.2°C 47% 4.0 mph E6.4 kmh E 7.0 mph11.3 kmh 210.59 in7131.4 mb 0.00 in0.0 mm 0.00 in0.0 mm 0.00 in0.0 mm
07:50 AM 54.0°F12.2°C 33.7°F0.9°C 46% Calm Calm 7.0 mph11.3 kmh 210.59 in7131.4 mb 0.00 in0.0 mm 0.00 in0.0 mm 0.00 in0.0 mm
07:45 AM 54.0°F12.2°C 34.2°F1.2°C 47% Calm Calm 7.0 mph11.3 kmh 210.59 in7131.4 mb 0.00 in0.0 mm 0.00 in0.0 mm 0.00 in0.0 mm
07:40 AM 53.0°F11.7°C 33.3°F0.7°C 47% Calm Calm 7.0 mph11.3 kmh 210.59 in7131.4 mb 0.00 in0.0 mm 0.00 in0.0 mm 0.00 in0.0 mm
07:35 AM 53.0°F11.7°C 33.3°F0.7°C 47% Calm Calm 7.0 mph11.3 kmh 210.58 in7131.1 mb 0.00 in0.0 mm 0.00 in0.0 mm 0.00 in0.0 mm
07:30 AM 53.0°F11.7°C 33.3°F0.7°C 47% Calm Calm 7.0 mph11.3 kmh 210.58 in7131.1 mb 0.00 in0.0 mm 0.00 in0.0 mm 0.00 in0.0 mm
07:25 AM 52.0°F11.1°C 32.4°F0.2°C 47% Calm Calm 7.0 mph11.3 kmh 210.58 in7131.1 mb 0.00 in0.0 mm 0.00 in0.0 mm 0.00 in0.0 mm
07:20 AM 52.0°F11.1°C 32.4°F0.2°C 47% Calm Calm 7.0 mph11.3 kmh 210.58 in7131.1 mb 0.00 in0.0 mm 0.00 in0.0 mm 0.00 in0.0 mm
07:15 AM 52.0°F11.1°C 32.4°F0.2°C 47% Calm Calm 7.0 mph11.3 kmh 210.58 in7131.1 mb 0.00 in0.0 mm 0.00 in0.0 mm 0.00 in0.0 mm
07:10 AM 52.0°F11.1°C 32.4°F0.2°C 47% Calm Calm 7.0 mph11.3 kmh 210.58 in7131.1 mb 0.00 in0.0 mm 0.00 in0.0 mm 0.00 in0.0 mm
07:05 AM 52.0°F11.1°C 32.4°F0.2°C 47% Calm Calm 7.0 mph11.3 kmh 210.58 in7131.1 mb 0.00 in0.0 mm 0.00 in0.0 mm 0.00 in0.0 mm
07:00 AM 52.0°F11.1°C 32.4°F0.2°C 47% Calm Calm 7.0 mph11.3 kmh 210.58 in7131.1 mb 0.00 in0.0 mm 0.00 in0.0 mm 0.00 in0.0 mm
06:55 AM 52.0°F11.1°C 32.4°F0.2°C 47% 1.0 mph E1.6 kmh E 7.0 mph11.3 kmh 210.58 in7131.1 mb 0.00 in0.0 mm 0.00 in0.0 mm 0.00 in0.0 mm
06:50 AM 52.0°F11.1°C 32.9°F0.5°C 48% Calm Calm 7.0 mph11.3 kmh 210.58 in7131.1 mb 0.00 in0.0 mm 0.00 in0.0 mm 0.00 in0.0 mm
06:45 AM 52.0°F11.1°C 32.4°F0.2°C 47% Calm Calm 7.0 mph11.3 kmh 210.57 in7130.7 mb 0.00 in0.0 mm 0.00 in0.0 mm 0.00 in0.0 mm
06:40 AM 52.0°F11.1°C 32.4°F0.2°C 47% Calm Calm 7.0 mph11.3 kmh 210.57 in7130.7 mb 0.00 in0.0 mm 0.00 in0.0 mm 0.00 in0.0 mm
06:35 AM 52.0°F11.1°C 32.4°F0.2°C 47% Calm Calm 7.0 mph11.3 kmh 210.57 in7130.7 mb 0.00 in0.0 mm 0.00 in0.0 mm 0.00 in0.0 mm
06:30 AM 52.0°F11.1°C 32.4°F0.2°C 47% Calm Calm 7.0 mph11.3 kmh 210.57 in7130.7 mb 0.00 in0.0 mm 0.00 in0.0 mm 0.00 in0.0 mm
06:25 AM 53.0°F11.7°C 33.3°F0.7°C 47% Calm Calm 7.0 mph11.3 kmh 210.57 in7130.7 mb 0.00 in0.0 mm 0.00 in0.0 mm 0.00 in0.0 mm
06:20 AM 53.0°F11.7°C 33.3°F0.7°C 47% Calm Calm 7.0 mph11.3 kmh 210.57 in7130.7 mb 0.00 in0.0 mm 0.00 in0.0 mm 0.00 in0.0 mm
06:15 AM 53.0°F11.7°C 33.3°F0.7°C 47% Calm Calm 7.0 mph11.3 kmh 210.56 in7130.4 mb 0.00 in0.0 mm 0.00 in0.0 mm 0.00 in0.0 mm
06:10 AM 53.0°F11.7°C 33.3°F0.7°C 47% Calm Calm 7.0 mph11.3 kmh 210.56 in7130.4 mb 0.00 in0.0 mm 0.00 in0.0 mm 0.00 in0.0 mm
06:05 AM 53.0°F11.7°C 33.8°F1.0°C 48% 1.0 mph E1.6 kmh E 7.0 mph11.3 kmh 210.56 in7130.4 mb 0.00 in0.0 mm 0.00 in0.0 mm 0.00 in0.0 mm
06:00 AM 53.0°F11.7°C 33.8°F1.0°C 48% 1.0 mph E1.6 kmh E 7.0 mph11.3 kmh 210.56 in7130.4 mb 0.00 in0.0 mm 0.00 in0.0 mm 0.00 in0.0 mm
05:55 AM 53.0°F11.7°C 33.3°F0.7°C 47% Calm Calm 7.0 mph11.3 kmh 210.56 in7130.4 mb 0.00 in0.0 mm 0.00 in0.0 mm 0.00 in0.0 mm
05:50 AM 53.0°F11.7°C 33.3°F0.7°C 47% Calm Calm 7.0 mph11.3 kmh 210.56 in7130.4 mb 0.00 in0.0 mm 0.00 in0.0 mm 0.00 in0.0 mm
05:45 AM 53.0°F11.7°C 33.8°F1.0°C 48% Calm Calm 7.0 mph11.3 kmh 210.56 in7130.4 mb 0.00 in0.0 mm 0.00 in0.0 mm 0.00 in0.0 mm
05:40 AM 53.0°F11.7°C 33.3°F0.7°C 47% Calm Calm 7.0 mph11.3 kmh 210.56 in7130.4 mb 0.00 in0.0 mm 0.00 in0.0 mm 0.00 in0.0 mm
05:35 AM 53.0°F11.7°C 33.3°F0.7°C 47% 1.0 mph E1.6 kmh E 7.0 mph11.3 kmh 210.55 in7130.0 mb 0.00 in0.0 mm 0.00 in0.0 mm 0.00 in0.0 mm
05:30 AM 53.0°F11.7°C 33.8°F1.0°C 48% Calm Calm 7.0 mph11.3 kmh 210.55 in7130.0 mb 0.00 in0.0 mm 0.00 in0.0 mm 0.00 in0.0 mm
05:25 AM 53.0°F11.7°C 33.8°F1.0°C 48% Calm Calm 7.0 mph11.3 kmh 210.56 in7130.4 mb 0.00 in0.0 mm 0.00 in0.0 mm 0.00 in0.0 mm
05:20 AM 53.0°F11.7°C 33.8°F1.0°C 48% 2.0 mph E3.2 kmh E 7.0 mph11.3 kmh 210.56 in7130.4 mb 0.00 in0.0 mm 0.00 in0.0 mm 0.00 in0.0 mm
05:15 AM 53.0°F11.7°C 33.8°F1.0°C 48% 1.0 mph E1.6 kmh E 7.0 mph11.3 kmh 210.55 in7130.0 mb 0.00 in0.0 mm 0.00 in0.0 mm 0.00 in0.0 mm
05:10 AM 53.0°F11.7°C 33.3°F0.7°C 47% Calm Calm 7.0 mph11.3 kmh 210.55 in7130.0 mb 0.00 in0.0 mm 0.00 in0.0 mm 0.00 in0.0 mm
05:05 AM 53.0°F11.7°C 33.8°F1.0°C 48% 1.0 mph E1.6 kmh E 7.0 mph11.3 kmh 210.55 in7130.0 mb 0.00 in0.0 mm 0.00 in0.0 mm 0.00 in0.0 mm
05:00 AM 53.0°F11.7°C 33.8°F1.0°C 48% Calm Calm 7.0 mph11.3 kmh 210.55 in7130.0 mb 0.00 in0.0 mm 0.00 in0.0 mm 0.00 in0.0 mm
04:55 AM 53.0°F11.7°C 33.8°F1.0°C 48% Calm Calm 7.0 mph11.3 kmh 210.55 in7130.0 mb 0.00 in0.0 mm 0.00 in0.0 mm 0.00 in0.0 mm
04:50 AM 53.0°F11.7°C 33.8°F1.0°C 48% Calm Calm 7.0 mph11.3 kmh 210.55 in7130.0 mb 0.00 in0.0 mm 0.00 in0.0 mm 0.00 in0.0 mm
04:45 AM 53.0°F11.7°C 33.8°F1.0°C 48% Calm Calm 7.0 mph11.3 kmh 210.56 in7130.4 mb 0.00 in0.0 mm 0.00 in0.0 mm 0.00 in0.0 mm
04:40 AM 53.0°F11.7°C 33.8°F1.0°C 48% 4.0 mph E6.4 kmh E 7.0 mph11.3 kmh 210.56 in7130.4 mb 0.00 in0.0 mm 0.00 in0.0 mm 0.00 in0.0 mm
04:35 AM 53.0°F11.7°C 33.8°F1.0°C 48% Calm Calm 7.0 mph11.3 kmh 210.56 in7130.4 mb 0.00 in0.0 mm 0.00 in0.0 mm 0.00 in0.0 mm
04:30 AM 54.0°F12.2°C 34.7°F1.5°C 48% 1.0 mph E1.6 kmh E 7.0 mph11.3 kmh 210.56 in7130.4 mb 0.00 in0.0 mm 0.00 in0.0 mm 0.00 in0.0 mm
04:25 AM 54.0°F12.2°C 34.7°F1.5°C 48% 1.0 mph E1.6 kmh E 7.0 mph11.3 kmh 210.56 in7130.4 mb 0.00 in0.0 mm 0.00 in0.0 mm 0.00 in0.0 mm
04:20 AM 54.0°F12.2°C 34.7°F1.5°C 48% 1.0 mph E1.6 kmh E 7.0 mph11.3 kmh 210.56 in7130.4 mb 0.00 in0.0 mm 0.00 in0.0 mm 0.00 in0.0 mm
04:15 AM 54.0°F12.2°C 34.7°F1.5°C 48% Calm Calm 7.0 mph11.3 kmh 210.56 in7130.4 mb 0.00 in0.0 mm 0.00 in0.0 mm 0.00 in0.0 mm
04:10 AM 54.0°F12.2°C 34.7°F1.5°C 48% Calm Calm 7.0 mph11.3 kmh 210.56 in7130.4 mb 0.00 in0.0 mm 0.00 in0.0 mm 0.00 in0.0 mm
04:05 AM 54.0°F12.2°C 34.7°F1.5°C 48% Calm Calm 7.0 mph11.3 kmh 210.56 in7130.4 mb 0.00 in0.0 mm 0.00 in0.0 mm 0.00 in0.0 mm
04:00 AM 54.0°F12.2°C 34.7°F1.5°C 48% Calm Calm 7.0 mph11.3 kmh 210.56 in7130.4 mb 0.00 in0.0 mm 0.00 in0.0 mm 0.00 in0.0 mm
03:55 AM 54.0°F12.2°C 34.7°F1.5°C 48% 1.0 mph E1.6 kmh E 7.0 mph11.3 kmh 210.56 in7130.4 mb 0.00 in0.0 mm 0.00 in0.0 mm 0.00 in0.0 mm
03:50 AM 54.0°F12.2°C 34.7°F1.5°C 48% 1.0 mph E1.6 kmh E 7.0 mph11.3 kmh 210.56 in7130.4 mb 0.00 in0.0 mm 0.00 in0.0 mm 0.00 in0.0 mm
03:45 AM 54.0°F12.2°C 34.2°F1.2°C 47% Calm Calm 7.0 mph11.3 kmh 210.55 in7130.0 mb 0.00 in0.0 mm 0.00 in0.0 mm 0.00 in0.0 mm
03:40 AM 54.0°F12.2°C 34.7°F1.5°C 48% 1.0 mph E1.6 kmh E 7.0 mph11.3 kmh 210.55 in7130.0 mb 0.00 in0.0 mm 0.00 in0.0 mm 0.00 in0.0 mm
03:35 AM 54.0°F12.2°C 34.7°F1.5°C 48% Calm Calm 7.0 mph11.3 kmh 210.56 in7130.4 mb 0.00 in0.0 mm 0.00 in0.0 mm 0.00 in0.0 mm
03:30 AM 55.0°F12.8°C 35.1°F1.7°C 47% Calm Calm 7.0 mph11.3 kmh 210.56 in7130.4 mb 0.00 in0.0 mm 0.00 in0.0 mm 0.00 in0.0 mm
03:25 AM 55.0°F12.8°C 35.6°F2.0°C 48% Calm Calm 7.0 mph11.3 kmh 210.56 in7130.4 mb 0.00 in0.0 mm 0.00 in0.0 mm 0.00 in0.0 mm
03:20 AM 55.0°F12.8°C 35.6°F2.0°C 48% Calm Calm 7.0 mph11.3 kmh 210.56 in7130.4 mb 0.00 in0.0 mm 0.00 in0.0 mm 0.00 in0.0 mm
03:15 AM 55.0°F12.8°C 35.6°F2.0°C 48% 1.0 mph E1.6 kmh E 7.0 mph11.3 kmh 210.56 in7130.4 mb 0.00 in0.0 mm 0.00 in0.0 mm 0.00 in0.0 mm
03:10 AM 55.0°F12.8°C 35.6°F2.0°C 48% Calm Calm 7.0 mph11.3 kmh 210.56 in7130.4 mb 0.00 in0.0 mm 0.00 in0.0 mm 0.00 in0.0 mm
03:05 AM 55.0°F12.8°C 35.1°F1.7°C 47% 1.0 mph E1.6 kmh E 7.0 mph11.3 kmh 210.56 in7130.4 mb 0.00 in0.0 mm 0.00 in0.0 mm 0.00 in0.0 mm
03:00 AM 55.0°F12.8°C 35.1°F1.7°C 47% Calm Calm 7.0 mph11.3 kmh 210.56 in7130.4 mb 0.00 in0.0 mm 0.00 in0.0 mm 0.00 in0.0 mm
02:55 AM 56.0°F13.3°C 36.6°F2.6°C 48% 2.0 mph E3.2 kmh E 7.0 mph11.3 kmh 210.56 in7130.4 mb 0.00 in0.0 mm 0.00 in0.0 mm 0.00 in0.0 mm
02:50 AM 56.0°F13.3°C 36.0°F2.2°C 47% Calm Calm 7.0 mph11.3 kmh 210.56 in7130.4 mb 0.00 in0.0 mm 0.00 in0.0 mm 0.00 in0.0 mm
02:45 AM 56.0°F13.3°C 36.0°F2.2°C 47% 1.0 mph E1.6 kmh E 7.0 mph11.3 kmh 210.57 in7130.7 mb 0.00 in0.0 mm 0.00 in0.0 mm 0.00 in0.0 mm
02:40 AM 56.0°F13.3°C 36.6°F2.6°C 48% Calm Calm 7.0 mph11.3 kmh 210.57 in7130.7 mb 0.00 in0.0 mm 0.00 in0.0 mm 0.00 in0.0 mm
02:35 AM 56.0°F13.3°C 36.6°F2.6°C 48% Calm Calm 7.0 mph11.3 kmh 210.56 in7130.4 mb 0.00 in0.0 mm 0.00 in0.0 mm 0.00 in0.0 mm
02:30 AM 56.0°F13.3°C 36.6°F2.6°C 48% 1.0 mph E1.6 kmh E 7.0 mph11.3 kmh 210.56 in7130.4 mb 0.00 in0.0 mm 0.00 in0.0 mm 0.00 in0.0 mm
02:25 AM 56.0°F13.3°C 36.6°F2.6°C 48% Calm Calm 7.0 mph11.3 kmh 210.56 in7130.4 mb 0.00 in0.0 mm 0.00 in0.0 mm 0.00 in0.0 mm
02:20 AM 57.0°F13.9°C 37.5°F3.1°C 48% 1.0 mph E1.6 kmh E 7.0 mph11.3 kmh 210.56 in7130.4 mb 0.00 in0.0 mm 0.00 in0.0 mm 0.00 in0.0 mm
02:15 AM 57.0°F13.9°C 37.5°F3.1°C 48% 3.0 mph E4.8 kmh E 7.0 mph11.3 kmh 210.56 in7130.4 mb 0.00 in0.0 mm 0.00 in0.0 mm 0.00 in0.0 mm
02:10 AM 57.0°F13.9°C 36.9°F2.7°C 47% 4.0 mph E6.4 kmh E 7.0 mph11.3 kmh 210.56 in7130.4 mb 0.00 in0.0 mm 0.00 in0.0 mm 0.00 in0.0 mm
02:05 AM 57.0°F13.9°C 37.5°F3.1°C 48% 2.0 mph NNE3.2 kmh NNE 7.0 mph11.3 kmh 210.56 in7130.4 mb 0.00 in0.0 mm 0.00 in0.0 mm 0.00 in0.0 mm
02:00 AM 57.0°F13.9°C 37.5°F3.1°C 48% Calm Calm 7.0 mph11.3 kmh 210.56 in7130.4 mb 0.00 in0.0 mm 0.00 in0.0 mm 0.00 in0.0 mm
01:55 AM 57.0°F13.9°C 37.5°F3.1°C 48% 2.0 mph E3.2 kmh E 7.0 mph11.3 kmh 210.56 in7130.4 mb 0.00 in0.0 mm 0.00 in0.0 mm 0.00 in0.0 mm
01:50 AM 57.0°F13.9°C 37.5°F3.1°C 48% 5.0 mph E8.0 kmh E 7.0 mph11.3 kmh 210.56 in7130.4 mb 0.00 in0.0 mm 0.00 in0.0 mm 0.00 in0.0 mm
01:45 AM 57.0°F13.9°C 37.5°F3.1°C 48% 2.0 mph ENE3.2 kmh ENE 7.0 mph11.3 kmh 210.56 in7130.4 mb 0.00 in0.0 mm 0.00 in0.0 mm 0.00 in0.0 mm
01:40 AM 57.0°F13.9°C 37.5°F3.1°C 48% 1.0 mph E1.6 kmh E 7.0 mph11.3 kmh 210.56 in7130.4 mb 0.00 in0.0 mm 0.00 in0.0 mm 0.00 in0.0 mm
01:35 AM 57.0°F13.9°C 37.5°F3.1°C 48% 2.0 mph E3.2 kmh E 7.0 mph11.3 kmh 210.56 in7130.4 mb 0.00 in0.0 mm 0.00 in0.0 mm 0.00 in0.0 mm
01:30 AM 57.0°F13.9°C 38.0°F3.3°C 49% Calm Calm 7.0 mph11.3 kmh 210.56 in7130.4 mb 0.00 in0.0 mm 0.00 in0.0 mm 0.00 in0.0 mm
01:25 AM 57.0°F13.9°C 37.5°F3.1°C 48% 3.0 mph E4.8 kmh E 7.0 mph11.3 kmh 210.57 in7130.7 mb 0.00 in0.0 mm 0.00 in0.0 mm 0.00 in0.0 mm
01:20 AM 57.0°F13.9°C 37.5°F3.1°C 48% Calm Calm 7.0 mph11.3 kmh 210.57 in7130.7 mb 0.00 in0.0 mm 0.00 in0.0 mm 0.00 in0.0 mm
01:15 AM 57.0°F13.9°C 36.9°F2.7°C 47% 2.0 mph E3.2 kmh E 7.0 mph11.3 kmh 210.56 in7130.4 mb 0.00 in0.0 mm 0.00 in0.0 mm 0.00 in0.0 mm
01:10 AM 57.0°F13.9°C 37.5°F3.1°C 48% Calm Calm 7.0 mph11.3 kmh 210.56 in7130.4 mb 0.00 in0.0 mm 0.00 in0.0 mm 0.00 in0.0 mm
01:05 AM 58.0°F14.4°C 37.8°F3.2°C 47% Calm Calm 7.0 mph11.3 kmh 210.57 in7130.7 mb 0.00 in0.0 mm 0.00 in0.0 mm 0.00 in0.0 mm
01:00 AM 58.0°F14.4°C 37.8°F3.2°C 47% Calm Calm 7.0 mph11.3 kmh 210.57 in7130.7 mb 0.00 in0.0 mm 0.00 in0.0 mm 0.00 in0.0 mm
12:55 AM 58.0°F14.4°C 37.8°F3.2°C 47% 1.0 mph E1.6 kmh E 7.0 mph11.3 kmh 210.57 in7130.7 mb 0.00 in0.0 mm 0.00 in0.0 mm 0.00 in0.0 mm
12:50 AM 58.0°F14.4°C 37.8°F3.2°C 47% Calm Calm 7.0 mph11.3 kmh 210.57 in7130.7 mb 0.00 in0.0 mm 0.00 in0.0 mm 0.00 in0.0 mm
12:45 AM 58.0°F14.4°C 36.7°F2.6°C 45% Calm Calm 7.0 mph11.3 kmh 210.57 in7130.7 mb 0.00 in0.0 mm 0.00 in0.0 mm 0.00 in0.0 mm
12:40 AM 58.0°F14.4°C 38.4°F3.6°C 48% 1.0 mph E1.6 kmh E 7.0 mph11.3 kmh 210.57 in7130.7 mb 0.00 in0.0 mm 0.00 in0.0 mm 0.00 in0.0 mm
12:35 AM 58.0°F14.4°C 38.4°F3.6°C 48% 1.0 mph E1.6 kmh E 7.0 mph11.3 kmh 210.57 in7130.7 mb 0.00 in0.0 mm 0.00 in0.0 mm 0.00 in0.0 mm
12:30 AM 59.0°F15.0°C 39.8°F4.3°C 49% 7.0 mph E11.3 kmh E 7.0 mph11.3 kmh 210.57 in7130.7 mb 0.00 in0.0 mm 0.00 in0.0 mm 0.00 in0.0 mm
12:25 AM 59.0°F15.0°C 38.2°F3.4°C 46% Calm Calm 7.0 mph11.3 kmh 210.57 in7130.7 mb 0.00 in0.0 mm 0.00 in0.0 mm 0.00 in0.0 mm
12:20 AM 59.0°F15.0°C 38.2°F3.4°C 46% 4.0 mph E6.4 kmh E 7.0 mph11.3 kmh 210.57 in7130.7 mb 0.00 in0.0 mm 0.00 in0.0 mm 0.00 in0.0 mm
12:15 AM 59.0°F15.0°C 38.2°F3.4°C 46% 2.0 mph E3.2 kmh E 6.0 mph9.7 kmh 210.57 in7130.7 mb 0.00 in0.0 mm 0.00 in0.0 mm 0.00 in0.0 mm
12:10 AM 59.0°F15.0°C 38.2°F3.4°C 46% 2.0 mph E3.2 kmh E 6.0 mph9.7 kmh 210.57 in7130.7 mb 0.00 in0.0 mm 0.00 in0.0 mm 0.00 in0.0 mm
12:05 AM 59.0°F15.0°C 38.2°F3.4°C 46% 1.0 mph ENE1.6 kmh ENE 6.0 mph9.7 kmh 210.57 in7130.7 mb 0.00 in0.0 mm 0.00 in0.0 mm 0.00 in0.0 mm
12:00 AM 59.0°F15.0°C 38.2°F3.4°C 46% Calm Calm -- 210.57 in7130.7 mb 0.00 in0.0 mm 0.00 in0.0 mm 0.00 in0.0 mm